createdAt,value
2022-12-24T00:03:23.343Z,12.43
2022-12-24T00:08:25.383Z,12.46
2022-12-24T00:13:27.286Z,12.48
2022-12-24T00:18:29.158Z,12.51
2022-12-24T00:23:31.043Z,12.55
2022-12-24T00:28:33.051Z,12.53
2022-12-24T00:33:34.878Z,12.45
2022-12-24T00:38:37.127Z,12.44
2022-12-24T00:43:38.975Z,12.45
2022-12-24T00:48:40.817Z,12.47
2022-12-24T00:53:43.221Z,12.44
2022-12-24T00:58:45.419Z,12.39
2022-12-24T01:03:47.750Z,12.38
2022-12-24T01:08:52.723Z,12.37
2022-12-24T01:13:56.093Z,12.36
2022-12-24T01:18:57.963Z,12.34
2022-12-24T01:23:59.840Z,12.39
2022-12-24T01:29:01.813Z,12.42
2022-12-24T01:34:03.930Z,12.39
2022-12-24T01:39:05.874Z,12.44
2022-12-24T01:44:25.324Z,12.48
2022-12-24T01:49:31.061Z,12.45
2022-12-24T01:54:34.980Z,12.43
2022-12-24T01:59:39.003Z,12.42
2022-12-24T02:04:46.712Z,12.30
2022-12-24T02:09:51.362Z,12.14
2022-12-24T02:14:54.326Z,12.01
2022-12-24T02:20:27.127Z,12.08
2022-12-24T02:25:36.130Z,12.10
2022-12-24T02:30:48.797Z,12.18
2022-12-24T02:36:10.883Z,12.23
2022-12-24T02:41:50.195Z,12.30
2022-12-24T02:46:53.213Z,12.22
2022-12-24T02:51:55.167Z,12.19
2022-12-24T02:57:03.059Z,12.10
2022-12-24T03:02:26.296Z,12.11
2022-12-24T03:07:38.320Z,12.05
2022-12-24T03:12:44.899Z,11.95
2022-12-24T03:17:49.456Z,11.95
2022-12-24T03:22:51.511Z,11.90
2022-12-24T03:27:55.335Z,11.97
2022-12-24T03:32:57.200Z,11.98
2022-12-24T03:37:59.078Z,11.92
2022-12-24T03:43:00.968Z,11.89
2022-12-24T03:48:02.884Z,11.79
2022-12-24T03:53:04.732Z,11.76
2022-12-24T03:58:07.026Z,11.72
2022-12-24T04:03:09.003Z,11.81
2022-12-24T04:08:10.911Z,11.86
2022-12-24T04:13:12.742Z,11.85
2022-12-24T04:18:14.590Z,11.88
2022-12-24T04:23:16.428Z,11.93
2022-12-24T04:28:18.651Z,11.98
2022-12-24T04:33:20.468Z,12.02
2022-12-24T04:38:22.300Z,12.04
2022-12-24T04:43:24.152Z,12.10
2022-12-24T04:48:25.982Z,12.18
2022-12-24T04:53:27.842Z,12.20
2022-12-24T04:58:29.795Z,12.10
2022-12-24T05:03:31.875Z,11.97
2022-12-24T05:08:34.467Z,11.88
2022-12-24T05:13:44.045Z,11.72
2022-12-24T05:18:48.447Z,11.65
2022-12-24T05:24:09.639Z,11.60
2022-12-24T05:29:12.722Z,11.52
2022-12-24T05:34:16.167Z,11.49
2022-12-24T05:39:18.738Z,11.51
2022-12-24T05:44:20.663Z,11.47
2022-12-24T05:49:22.517Z,11.42
2022-12-24T05:54:24.349Z,11.30
2022-12-24T05:59:26.168Z,11.23
2022-12-24T06:04:29.252Z,11.15
2022-12-24T06:09:31.475Z,11.07
2022-12-24T06:14:34.555Z,10.96
2022-12-24T06:19:36.490Z,10.90
2022-12-24T06:24:38.327Z,10.86
2022-12-24T06:29:40.183Z,10.81
2022-12-24T06:34:42.015Z,10.84
2022-12-24T06:39:46.224Z,10.86
2022-12-24T06:44:48.344Z,10.88
2022-12-24T06:49:50.395Z,10.91
2022-12-24T06:54:52.336Z,11.01
2022-12-24T06:59:54.209Z,11.09
2022-12-24T07:04:56.039Z,11.14
2022-12-24T07:09:58.022Z,11.18
2022-12-24T07:15:00.043Z,11.19
2022-12-24T07:20:02.286Z,11.21
2022-12-24T07:25:04.388Z,11.20
2022-12-24T07:30:06.986Z,11.22
2022-12-24T07:35:09.328Z,11.24
2022-12-24T07:40:11.476Z,11.24
2022-12-24T07:45:13.332Z,11.25
2022-12-24T07:50:15.237Z,11.26
2022-12-24T07:55:17.170Z,11.26
2022-12-24T08:00:19.398Z,11.26
2022-12-24T08:05:21.260Z,11.22
2022-12-24T08:10:23.155Z,11.21
2022-12-24T08:15:24.959Z,11.15
2022-12-24T08:20:27.000Z,11.17
2022-12-24T08:25:28.929Z,11.19
2022-12-24T08:30:30.829Z,11.20
2022-12-24T08:35:32.711Z,11.19
2022-12-24T08:40:34.703Z,11.25
2022-12-24T08:45:40.916Z,11.26
2022-12-24T08:50:43.093Z,11.30
2022-12-24T08:55:47.852Z,11.30
2022-12-24T09:00:54.000Z,11.39
2022-12-24T09:05:56.140Z,11.48
2022-12-24T09:11:06.212Z,11.62
2022-12-24T09:16:08.829Z,11.83
2022-12-24T09:21:14.602Z,12.12
2022-12-24T09:26:20.275Z,12.38
2022-12-24T09:31:22.219Z,12.57
2022-12-24T09:36:24.147Z,12.65
2022-12-24T09:41:32.678Z,12.68
2022-12-24T09:46:39.644Z,12.63
2022-12-24T09:51:46.237Z,12.70
2022-12-24T09:56:49.838Z,12.69
2022-12-24T10:01:54.061Z,12.62
2022-12-24T10:07:20.371Z,12.54
2022-12-24T10:12:38.190Z,12.41
2022-12-24T10:17:52.355Z,12.46
2022-12-24T10:23:05.326Z,12.67
2022-12-24T10:28:18.209Z,12.75
2022-12-24T10:33:32.308Z,12.61
2022-12-24T10:38:34.372Z,12.52
2022-12-24T10:43:38.302Z,12.41
2022-12-24T10:48:50.869Z,12.38
2022-12-24T10:54:00.893Z,12.40
2022-12-24T10:59:03.293Z,12.44
2022-12-24T11:04:05.116Z,12.42
2022-12-24T11:09:24.262Z,12.47
2022-12-24T11:14:33.246Z,12.42
2022-12-24T11:19:40.257Z,12.31
2022-12-24T11:24:48.127Z,12.22
2022-12-24T11:29:51.852Z,12.13
2022-12-24T11:34:53.711Z,11.92
2022-12-24T11:40:00.800Z,11.72
2022-12-24T11:45:17.636Z,11.60
2022-12-24T11:50:27.939Z,11.60
2022-12-24T11:55:35.477Z,11.61
2022-12-24T12:00:39.525Z,11.73
2022-12-24T12:05:41.701Z,11.82
2022-12-24T12:10:45.671Z,11.91
2022-12-24T12:16:11.613Z,11.97
2022-12-24T12:21:19.254Z,12.09
2022-12-24T12:26:29.723Z,12.17
2022-12-24T12:31:38.983Z,12.18
2022-12-24T12:36:47.463Z,12.17
2022-12-24T12:42:02.714Z,12.21
2022-12-24T12:47:22.839Z,12.26
2022-12-24T12:52:56.335Z,12.27
2022-12-24T12:58:03.563Z,12.73
2022-12-24T13:03:42.968Z,12.85
2022-12-24T13:08:57.219Z,12.65
2022-12-24T13:14:36.772Z,12.43
2022-12-24T13:19:54.791Z,12.96
2022-12-24T13:24:57.142Z,13.41
2022-12-24T13:30:24.306Z,13.39
2022-12-24T13:35:35.153Z,13.13
2022-12-24T13:40:39.284Z,12.86
2022-12-24T13:45:44.004Z,12.74
2022-12-24T13:50:49.902Z,12.71
2022-12-24T13:55:57.517Z,12.72
2022-12-24T14:01:03.307Z,12.70
2022-12-24T14:06:12.920Z,12.66
2022-12-24T14:11:20.007Z,12.54
2022-12-24T14:16:24.950Z,12.39
2022-12-24T14:21:32.336Z,12.29
2022-12-24T14:26:36.922Z,12.19
2022-12-24T14:31:38.850Z,12.13
2022-12-24T14:36:44.674Z,11.96
2022-12-24T14:41:57.190Z,11.88
2022-12-24T14:48:03.953Z,11.78
2022-12-24T14:53:22.849Z,11.68
2022-12-24T14:58:31.573Z,11.63
2022-12-24T15:03:33.891Z,11.63
2022-12-24T15:08:47.128Z,11.65
2022-12-24T15:13:58.646Z,11.67
2022-12-24T15:19:07.196Z,11.60
2022-12-24T15:24:29.094Z,11.58
2022-12-24T15:29:33.186Z,11.55
2022-12-24T15:34:41.301Z,11.56
2022-12-24T15:39:44.252Z,11.59
2022-12-24T15:45:28.404Z,11.62
2022-12-24T15:50:43.508Z,11.62
2022-12-24T15:55:59.321Z,11.58
2022-12-24T16:01:13.310Z,11.55
2022-12-24T16:06:16.369Z,11.53
2022-12-24T16:11:21.444Z,11.42
2022-12-24T16:16:33.199Z,11.41
2022-12-24T16:21:39.220Z,11.41
2022-12-24T16:26:41.772Z,11.48
2022-12-24T16:31:47.494Z,11.51
2022-12-24T16:36:50.039Z,11.48
2022-12-24T16:42:13.245Z,11.42
2022-12-24T16:47:25.844Z,11.38
2022-12-24T16:52:30.747Z,11.35
2022-12-24T16:57:34.389Z,11.28
2022-12-24T17:02:36.341Z,11.26
2022-12-24T17:07:43.402Z,11.30
2022-12-24T17:12:45.975Z,11.30
2022-12-24T17:17:47.819Z,11.30
2022-12-24T17:22:50.706Z,11.07
2022-12-24T17:27:52.553Z,10.92
2022-12-24T17:32:54.362Z,10.86
2022-12-24T17:37:56.171Z,10.79
2022-12-24T17:42:57.979Z,10.77
2022-12-24T17:47:59.824Z,10.78
2022-12-24T17:53:01.639Z,10.78
2022-12-24T17:58:03.535Z,10.76
2022-12-24T18:03:05.807Z,10.72
2022-12-24T18:08:07.769Z,10.65
2022-12-24T18:13:13.926Z,10.70
2022-12-24T18:18:21.005Z,10.58
2022-12-24T18:23:22.849Z,10.49
2022-12-24T18:28:24.668Z,10.45
2022-12-24T18:33:26.828Z,10.34
2022-12-24T18:38:29.812Z,10.29
2022-12-24T18:43:31.734Z,10.25
2022-12-24T18:48:34.221Z,10.26
2022-12-24T18:53:36.875Z,10.24
2022-12-24T18:58:41.274Z,10.16
2022-12-24T19:03:46.302Z,10.06
2022-12-24T19:08:57.615Z,9.91
2022-12-24T19:14:02.948Z,9.94
2022-12-24T19:19:07.077Z,9.87
2022-12-24T19:24:10.810Z,9.91
2022-12-24T19:29:12.907Z,10.01
2022-12-24T19:34:15.094Z,9.94
2022-12-24T19:39:17.232Z,9.87
2022-12-24T19:44:19.383Z,9.76
2022-12-24T19:49:21.889Z,9.60
2022-12-24T19:54:28.291Z,9.58
2022-12-24T19:59:46.974Z,9.58
2022-12-24T20:04:50.827Z,9.53
2022-12-24T20:09:53.448Z,9.54
2022-12-24T20:14:56.748Z,9.54
2022-12-24T20:19:58.720Z,9.51
2022-12-24T20:25:00.860Z,9.44
2022-12-24T20:30:03.239Z,9.44
2022-12-24T20:35:05.830Z,9.54
2022-12-24T20:40:08.673Z,9.55
2022-12-24T20:45:11.032Z,9.65
2022-12-24T20:50:13.243Z,9.66
2022-12-24T20:55:15.402Z,9.45
2022-12-24T21:00:18.399Z,9.39
2022-12-24T21:05:20.491Z,9.39
2022-12-24T21:10:26.767Z,9.43
2022-12-24T21:15:36.379Z,9.43
2022-12-24T21:20:43.108Z,9.39
2022-12-24T21:25:45.103Z,9.40
2022-12-24T21:30:46.994Z,9.48
2022-12-24T21:35:49.101Z,9.52
2022-12-24T21:41:16.130Z,9.51
2022-12-24T21:46:22.431Z,9.43
2022-12-24T21:51:25.936Z,9.40
2022-12-24T21:56:27.816Z,9.42
2022-12-24T22:01:29.788Z,9.37
2022-12-24T22:06:50.228Z,9.35
2022-12-24T22:11:54.927Z,9.25
2022-12-24T22:16:56.928Z,9.24
2022-12-24T22:21:59.347Z,9.23
2022-12-24T22:27:01.224Z,9.23
2022-12-24T22:32:04.261Z,9.23
2022-12-24T22:37:06.160Z,9.18
2022-12-24T22:42:08.079Z,9.13
2022-12-24T22:47:09.990Z,9.15
2022-12-24T22:52:11.867Z,9.11
2022-12-24T22:57:13.806Z,9.12
2022-12-24T23:02:18.329Z,9.13
2022-12-24T23:07:22.764Z,9.10
2022-12-24T23:12:44.548Z,9.09
2022-12-24T23:17:49.019Z,9.04
2022-12-24T23:22:50.882Z,8.96
2022-12-24T23:27:52.718Z,8.97
2022-12-24T23:32:54.835Z,9.02
2022-12-24T23:37:56.684Z,9.05
2022-12-24T23:42:58.520Z,9.09
2022-12-24T23:48:00.405Z,9.12
2022-12-24T23:53:02.270Z,9.13
2022-12-24T23:58:05.361Z,9.15
